Time;durP1;ratioP1;P1;durP2;ratioP2;P2;SDS_P1;SDS_P2;PMS_P1;PMS_P2;Temp;Humidity;BMP_temperature;BMP_pressure;BME280_temperature;BME280_humidity;BME280_pressure;Samples;Min_cycle;Max_cycle;Signal;HPM_P1;HPM_P2
2022/09/24 00:01:45;;;;;;;18.75;16.10;;;15.30;99.90;;;;;;5045396;28;20372;-34
2022/09/24 00:04:11;;;;;;;16.40;14.70;;;15.30;99.90;;;;;;5045555;28;20017;-35
2022/09/24 00:06:43;;;;;;;17.48;14.10;;;15.20;99.90;;;;;;5046579;28;20036;-35
2022/09/24 00:09:13;;;;;;;16.05;14.35;;;15.20;99.90;;;;;;5044562;28;20017;-34
2022/09/24 00:11:41;;;;;;;14.75;13.15;;;15.20;99.90;;;;;;5046080;28;20163;-34
2022/09/24 00:14:07;;;;;;;14.55;12.90;;;15.20;99.90;;;;;;5045883;28;20021;-35
2022/09/24 00:16:33;;;;;;;13.98;12.55;;;15.20;99.90;;;;;;5044973;28;20465;-35
2022/09/24 00:19:01;;;;;;;14.68;13.10;;;15.10;99.90;;;;;;5045087;28;20028;-35
2022/09/24 00:21:32;;;;;;;13.60;12.20;;;15.10;99.90;;;;;;5033999;28;20037;-35
2022/09/24 00:24:00;;;;;;;13.70;12.35;;;15.20;99.90;;;;;;5045005;28;20020;-35
2022/09/24 00:29:15;;;;;;;14.25;12.75;;;15.10;99.90;;;;;;5044605;28;20542;-35
2022/09/24 00:31:41;;;;;;;13.65;12.20;;;15.10;99.90;;;;;;5045339;28;20028;-34
2022/09/24 00:34:07;;;;;;;14.35;12.85;;;15.10;99.90;;;;;;5044790;28;20051;-34
2022/09/24 00:36:33;;;;;;;14.88;13.23;;;15.10;99.90;;;;;;5044492;28;20104;-34
2022/09/24 00:38:59;;;;;;;15.25;13.65;;;15.10;99.90;;;;;;5045986;28;20036;-34
2022/09/24 00:41:34;;;;;;;15.77;14.18;;;15.10;99.90;;;;;;5044730;28;20033;-34
2022/09/24 00:44:00;;;;;;;17.60;14.23;;;15.10;99.90;;;;;;5044455;28;20378;-34
2022/09/24 00:46:37;;;;;;;14.50;13.02;;;15.10;99.90;;;;;;5044026;28;20037;-34
2022/09/24 00:49:16;;;;;;;17.23;13.93;;;15.10;99.90;;;;;;5045668;28;20029;-34
2022/09/24 00:51:44;;;;;;;15.75;14.10;;;15.10;99.90;;;;;;5044218;28;20341;-34
2022/09/24 00:54:17;;;;;;;14.05;12.55;;;15.10;99.90;;;;;;5044651;28;20143;-35
2022/09/24 00:56:44;;;;;;;15.20;13.60;;;15.10;99.90;;;;;;5044783;28;20037;-34
2022/09/24 00:59:15;;;;;;;15.48;13.88;;;15.10;99.90;;;;;;5043406;28;20035;-35
2022/09/24 01:01:42;;;;;;;15.77;13.18;;;15.10;99.90;;;;;;5044796;28;20641;-34
2022/09/24 01:04:09;;;;;;;15.50;13.65;;;15.10;99.90;;;;;;5044030;28;20168;-34
2022/09/24 01:06:35;;;;;;;14.60;13.10;;;15.10;99.90;;;;;;5044121;28;20113;-34
2022/09/24 01:09:00;;;;;;;14.75;13.25;;;15.10;99.90;;;;;;5044382;28;20346;-34
2022/09/24 01:11:47;;;;;;;15.43;13.77;;;15.10;99.90;;;;;;5043257;28;20025;-35
2022/09/24 01:14:38;;;;;;;15.85;13.60;;;15.10;99.90;;;;;;5044303;28;20099;-35
2022/09/24 01:17:24;;;;;;;15.90;14.27;;;15.10;99.90;;;;;;5044080;28;20029;-35
2022/09/24 01:20:01;;;;;;;18.13;14.88;;;15.10;99.90;;;;;;5024129;28;20040;-35
2022/09/24 01:22:47;;;;;;;16.58;14.68;;;15.10;99.90;;;;;;5040572;28;20033;-34
2022/09/24 01:25:40;;;;;;;16.73;14.40;;;15.10;99.90;;;;;;5044240;28;20114;-34
2022/09/24 01:28:23;;;;;;;16.33;14.52;;;15.10;99.90;;;;;;5043505;28;20056;-36
2022/09/24 01:30:58;;;;;;;16.92;15.13;;;15.10;99.90;;;;;;5044302;28;20031;-37
2022/09/24 01:33:26;;;;;;;16.33;14.63;;;15.10;99.90;;;;;;5038987;28;20017;-35
2022/09/24 01:35:56;;;;;;;16.50;14.73;;;15.10;99.90;;;;;;5044030;28;20025;-34
2022/09/24 01:38:27;;;;;;;17.70;15.80;;;15.10;99.90;;;;;;5044094;28;20033;-34
2022/09/24 01:40:56;;;;;;;13.98;12.48;;;15.10;99.90;;;;;;5043439;28;20033;-35
2022/09/24 01:43:24;;;;;;;17.55;15.75;;;15.10;99.90;;;;;;5043887;28;20043;-35
2022/09/24 01:45:51;;;;;;;18.67;16.50;;;15.10;99.90;;;;;;5044342;28;20048;-34
2022/09/24 01:48:20;;;;;;;18.27;15.88;;;15.10;99.90;;;;;;5043249;28;20036;-35
2022/09/24 01:51:01;;;;;;;19.80;15.68;;;15.10;99.90;;;;;;5024623;28;20025;-35
2022/09/24 01:53:53;;;;;;;18.60;16.35;;;15.10;99.90;;;;;;5040565;28;20025;-35
2022/09/24 01:56:32;;;;;;;18.60;16.67;;;15.10;99.90;;;;;;5024253;28;20045;-34
2022/09/24 01:59:15;;;;;;;20.25;17.35;;;15.10;99.90;;;;;;5044397;28;20017;-35
2022/09/24 02:01:50;;;;;;;;;;;15.00;99.90;;;;;;5044679;28;20041;-36
2022/09/24 02:04:18;;;;;;;20.95;18.02;;;15.00;99.90;;;;;;5044230;28;20149;-36
2022/09/24 02:07:06;;;;;;;20.00;17.10;;;14.90;99.90;;;;;;5044503;28;20040;-37
2022/09/24 02:09:37;;;;;;;15.88;14.18;;;14.90;99.90;;;;;;5042739;28;20328;-35
2022/09/24 02:12:14;;;;;;;16.65;14.63;;;14.90;99.90;;;;;;5048559;28;20029;-35
2022/09/24 02:14:45;;;;;;;17.17;15.20;;;14.90;99.90;;;;;;5046184;28;20551;-34
2022/09/24 02:17:12;;;;;;;16.48;14.68;;;14.90;99.90;;;;;;5047696;28;20052;-35
2022/09/24 02:19:40;;;;;;;16.77;14.98;;;14.90;99.90;;;;;;5047244;28;20452;-35
2022/09/24 02:22:09;;;;;;;17.55;15.40;;;14.90;99.90;;;;;;5047108;28;20037;-35
2022/09/24 02:24:50;;;;;;;18.00;16.08;;;14.90;99.90;;;;;;5047544;28;20052;-34
2022/09/24 02:27:17;;;;;;;17.05;15.20;;;14.90;99.90;;;;;;5047221;28;20033;-36
2022/09/24 02:29:43;;;;;;;17.48;15.57;;;14.90;99.90;;;;;;5046938;28;20037;-35
2022/09/24 02:32:12;;;;;;;19.83;15.57;;;14.90;99.90;;;;;;5047459;28;20152;-35
2022/09/24 02:34:43;;;;;;;17.08;15.05;;;14.90;99.90;;;;;;5047634;28;20106;-35
2022/09/24 02:37:12;;;;;;;16.98;15.18;;;14.90;99.90;;;;;;5046634;28;20025;-35
2022/09/24 02:39:38;;;;;;;16.95;15.13;;;14.90;99.90;;;;;;5047212;28;20070;-35
2022/09/24 02:42:05;;;;;;;16.25;14.25;;;14.90;99.90;;;;;;5047427;28;20419;-37
2022/09/24 02:44:31;;;;;;;16.33;14.63;;;14.90;99.90;;;;;;5046250;28;20032;-35
2022/09/24 02:46:57;;;;;;;16.25;14.55;;;14.90;99.90;;;;;;5047421;28;20098;-36
2022/09/24 02:49:22;;;;;;;15.52;13.90;;;14.90;99.90;;;;;;5046241;28;20020;-37
2022/09/24 02:51:48;;;;;;;14.45;12.85;;;14.90;99.90;;;;;;5046312;28;20035;-36
2022/09/24 02:54:13;;;;;;;16.88;13.57;;;15.00;99.90;;;;;;5046301;28;20024;-35
2022/09/24 02:56:39;;;;;;;15.20;13.60;;;14.90;99.90;;;;;;5047012;28;20481;-35
2022/09/24 02:59:05;;;;;;;15.20;12.98;;;14.90;99.90;;;;;;5046444;28;20013;-35
2022/09/24 03:01:32;;;;;;;15.32;13.07;;;14.90;99.90;;;;;;5047047;28;20043;-35
2022/09/24 03:03:57;;;;;;;14.60;12.65;;;14.90;99.90;;;;;;5046417;28;20032;-34
2022/09/24 03:06:23;;;;;;;15.00;12.23;;;14.90;99.90;;;;;;5046393;28;20385;-34
2022/09/24 03:08:50;;;;;;;15.10;12.50;;;14.90;99.90;;;;;;5046890;28;20059;-38
2022/09/24 03:11:16;;;;;;;13.82;12.32;;;14.90;99.90;;;;;;5045207;28;20032;-35
2022/09/24 03:13:41;;;;;;;14.23;12.43;;;14.90;99.90;;;;;;5046649;28;20025;-35
2022/09/24 03:16:07;;;;;;;14.93;12.50;;;14.90;99.90;;;;;;5046187;28;20025;-35
2022/09/24 03:18:33;;;;;;;13.88;12.38;;;14.90;99.90;;;;;;5045855;28;20033;-35
2022/09/24 03:21:07;;;;;;;13.27;11.93;;;14.90;99.90;;;;;;5046222;28;20033;-35
2022/09/24 03:23:33;;;;;;;13.93;11.85;;;14.90;99.90;;;;;;5046274;28;20025;-34
2022/09/24 03:25:59;;;;;;;13.43;12.02;;;14.90;99.90;;;;;;5045270;28;20047;-36
2022/09/24 03:28:25;;;;;;;12.50;11.02;;;14.90;99.90;;;;;;5045928;28;20030;-34
2022/09/24 03:30:59;;;;;;;11.88;10.68;;;14.90;99.90;;;;;;5045991;28;20534;-35
2022/09/24 03:33:35;;;;;;;12.90;11.38;;;14.90;99.90;;;;;;5044901;28;20160;-34
2022/09/24 03:36:03;;;;;;;12.23;10.93;;;14.90;99.90;;;;;;5046165;28;20032;-34
2022/09/24 03:38:29;;;;;;;11.90;10.57;;;14.90;99.90;;;;;;5045721;28;20028;-34
2022/09/24 03:40:56;;;;;;;13.93;11.02;;;14.90;99.90;;;;;;5045699;28;20024;-35
2022/09/24 03:43:22;;;;;;;11.68;10.48;;;14.90;99.90;;;;;;5046085;28;20021;-36
2022/09/24 03:45:48;;;;;;;11.55;10.38;;;14.80;99.90;;;;;;5046163;28;20405;-35
2022/09/24 03:48:18;;;;;;;11.35;10.10;;;14.90;99.90;;;;;;5045146;28;20132;-36
2022/09/24 03:50:45;;;;;;;11.60;10.23;;;14.80;99.90;;;;;;5046140;28;20032;-35
2022/09/24 03:53:11;;;;;;;12.15;10.90;;;14.80;99.90;;;;;;5045040;28;20036;-35
2022/09/24 03:55:41;;;;;;;11.45;10.35;;;14.80;99.90;;;;;;5046008;28;20452;-35
2022/09/24 03:58:07;;;;;;;11.55;10.35;;;14.80;99.90;;;;;;5044317;28;20483;-35
2022/09/24 04:00:32;;;;;;;10.98;9.88;;;14.80;99.90;;;;;;5045498;28;20041;-35
2022/09/24 04:02:58;;;;;;;11.25;10.07;;;14.80;99.90;;;;;;5046152;28;20025;-34
2022/09/24 04:05:23;;;;;;;11.40;9.75;;;14.80;99.90;;;;;;5045422;28;20396;-35
2022/09/24 04:07:49;;;;;;;11.32;10.13;;;14.80;99.90;;;;;;5044759;28;20099;-35
2022/09/24 04:10:15;;;;;;;10.45;9.45;;;14.90;99.90;;;;;;5045518;28;20451;-34
2022/09/24 04:12:42;;;;;;;10.70;9.60;;;14.90;99.90;;;;;;5045510;28;20120;-34
2022/09/24 04:15:08;;;;;;;11.25;9.95;;;14.90;99.90;;;;;;5044162;28;20373;-35
2022/09/24 04:17:33;;;;;;;10.98;9.77;;;14.90;99.90;;;;;;5045367;28;20021;-34
2022/09/24 04:20:00;;;;;;;10.35;9.25;;;14.90;99.90;;;;;;5045845;28;20032;-35
2022/09/24 04:22:27;;;;;;;10.63;9.55;;;14.90;99.90;;;;;;5044150;28;20032;-36
2022/09/24 04:24:56;;;;;;;11.43;9.95;;;14.90;99.90;;;;;;5045321;28;20534;-35
2022/09/24 04:27:22;;;;;;;12.07;10.73;;;14.90;99.90;;;;;;5044752;28;20408;-35
2022/09/24 04:29:48;;;;;;;10.05;9.05;;;14.90;99.90;;;;;;5045070;28;20017;-34
2022/09/24 04:32:13;;;;;;;10.27;9.25;;;14.90;99.90;;;;;;5044496;28;20047;-35
2022/09/24 04:34:39;;;;;;;9.95;8.80;;;14.80;99.90;;;;;;5045157;28;20330;-35
2022/09/24 04:37:05;;;;;;;11.65;10.40;;;14.80;99.90;;;;;;5045526;28;20096;-35
2022/09/24 04:39:31;;;;;;;11.65;10.45;;;14.80;99.90;;;;;;5044884;28;20107;-35
2022/09/24 04:41:56;;;;;;;12.13;10.02;;;14.80;99.90;;;;;;5046139;28;20033;-33
2022/09/24 04:44:22;;;;;;;11.57;10.30;;;14.80;99.90;;;;;;5044589;28;20044;-34
2022/09/24 04:46:48;;;;;;;10.68;9.43;;;14.80;99.90;;;;;;5045549;28;20040;-36
2022/09/24 04:49:14;;;;;;;12.05;10.75;;;14.80;99.90;;;;;;5044449;28;20053;-36
2022/09/24 04:51:40;;;;;;;13.23;11.35;;;14.80;99.90;;;;;;5045001;28;20049;-34
2022/09/24 04:54:05;;;;;;;10.50;9.35;;;14.80;99.90;;;;;;5045101;28;20029;-35
2022/09/24 04:56:31;;;;;;;12.57;10.30;;;14.80;99.90;;;;;;5044357;28;20234;-36
2022/09/24 04:58:57;;;;;;;12.60;11.30;;;14.80;99.90;;;;;;5045451;28;20021;-35
2022/09/24 05:01:23;;;;;;;11.98;10.25;;;14.70;99.90;;;;;;5044711;28;20425;-35
2022/09/24 05:03:49;;;;;;;11.60;10.40;;;14.70;99.90;;;;;;5044372;28;20186;-35
2022/09/24 05:06:14;;;;;;;12.52;10.98;;;14.70;99.90;;;;;;5044541;28;20039;-35
2022/09/24 05:08:40;;;;;;;13.23;10.85;;;14.70;99.90;;;;;;5045360;28;20047;-35
2022/09/24 05:11:06;;;;;;;12.13;10.85;;;14.70;99.90;;;;;;5044186;28;20104;-35
2022/09/24 05:13:33;;;;;;;13.27;11.90;;;14.70;99.90;;;;;;5044610;28;20481;-36
2022/09/24 05:15:59;;;;;;;12.65;11.30;;;14.70;99.90;;;;;;5044842;28;20031;-35
2022/09/24 05:18:26;;;;;;;13.43;11.20;;;14.70;99.90;;;;;;5043663;28;20086;-35
2022/09/24 05:20:51;;;;;;;12.68;11.38;;;14.70;99.90;;;;;;5043667;28;20037;-35
2022/09/24 05:23:17;;;;;;;12.07;10.88;;;14.70;99.90;;;;;;5044736;28;20029;-35
2022/09/24 05:28:27;;;;;;;11.55;10.43;;;14.70;99.90;;;;;;5044377;28;20155;-35
2022/09/24 05:30:56;;;;;;;12.75;11.15;;;14.70;99.90;;;;;;5044537;28;20044;-33
2022/09/24 05:33:22;;;;;;;12.65;11.32;;;14.70;99.90;;;;;;5043746;28;20029;-34
2022/09/24 05:35:56;;;;;;;12.13;10.57;;;14.70;99.90;;;;;;5044362;28;20364;-35
2022/09/24 05:38:23;;;;;;;12.80;10.35;;;14.80;99.90;;;;;;5024002;28;20077;-34
2022/09/24 05:40:49;;;;;;;12.25;10.95;;;14.80;99.90;;;;;;5038273;28;20031;-36
2022/09/24 05:43:16;;;;;;;14.23;11.40;;;14.80;99.90;;;;;;5044176;28;20036;-35
2022/09/24 05:45:43;;;;;;;13.25;11.50;;;14.80;99.90;;;;;;5046870;28;20543;-34
2022/09/24 05:48:09;;;;;;;14.30;12.27;;;14.80;99.90;;;;;;5048130;28;20033;-35
2022/09/24 05:50:34;;;;;;;15.88;11.88;;;14.80;99.90;;;;;;5048399;28;20017;-35
2022/09/24 05:53:01;;;;;;;13.30;11.90;;;14.80;99.90;;;;;;5047590;28;20118;-36
2022/09/24 05:55:26;;;;;;;12.15;10.75;;;14.80;99.90;;;;;;5047912;28;20377;-35
2022/09/24 05:57:52;;;;;;;12.48;10.93;;;14.80;99.90;;;;;;5048208;28;20025;-34
2022/09/24 06:00:18;;;;;;;13.55;12.10;;;14.80;99.90;;;;;;5045820;28;20215;-34
2022/09/24 06:02:44;;;;;;;13.60;11.85;;;14.80;99.90;;;;;;5048418;28;20056;-34
2022/09/24 06:05:10;;;;;;;13.48;11.30;;;14.80;99.90;;;;;;5047264;28;20427;-35
2022/09/24 06:07:36;;;;;;;12.18;10.95;;;14.80;99.90;;;;;;5047840;28;20475;-33
2022/09/24 06:10:02;;;;;;;12.80;11.50;;;14.80;99.90;;;;;;5048647;28;20104;-34
2022/09/24 06:12:27;;;;;;;13.60;10.77;;;14.70;99.90;;;;;;5046605;28;20036;-35
2022/09/24 06:14:53;;;;;;;10.73;9.63;;;14.70;99.90;;;;;;5047756;28;20025;-35
2022/09/24 06:17:22;;;;;;;10.30;9.20;;;14.70;99.90;;;;;;5045770;28;20059;-34
2022/09/24 06:19:48;;;;;;;13.80;11.43;;;14.70;99.90;;;;;;5046314;28;20037;-35
2022/09/24 06:22:13;;;;;;;12.68;10.65;;;14.70;99.90;;;;;;5045545;28;20021;-34
2022/09/24 06:24:39;;;;;;;11.60;10.40;;;14.60;99.90;;;;;;5046471;28;20112;-35
2022/09/24 06:27:05;;;;;;;9.55;8.63;;;14.70;99.90;;;;;;5046416;28;20120;-35
2022/09/24 06:29:32;;;;;;;11.43;10.25;;;14.70;99.90;;;;;;5046027;28;20111;-35
2022/09/24 06:32:07;;;;;;;9.55;8.55;;;14.70;99.90;;;;;;5046762;28;20028;-35
2022/09/24 06:34:32;;;;;;;10.68;9.55;;;14.70;99.90;;;;;;5046213;28;20108;-35
2022/09/24 06:36:58;;;;;;;11.57;10.32;;;14.70;99.90;;;;;;5045356;28;20148;-34
2022/09/24 06:39:24;;;;;;;11.60;10.15;;;14.70;99.90;;;;;;5045309;28;20476;-36
2022/09/24 06:41:50;;;;;;;12.15;10.38;;;14.70;99.90;;;;;;5046082;28;20487;-35
2022/09/24 06:44:16;;;;;;;13.32;11.07;;;14.70;99.90;;;;;;5045342;28;20025;-36
2022/09/24 06:46:42;;;;;;;11.90;10.70;;;14.70;99.90;;;;;;5046621;28;20052;-36
2022/09/24 06:49:08;;;;;;;12.30;11.10;;;14.70;99.90;;;;;;5045020;28;20021;-34
2022/09/24 06:51:33;;;;;;;11.52;10.32;;;14.70;99.90;;;;;;5046735;28;20029;-35
2022/09/24 06:53:59;;;;;;;12.70;10.45;;;14.70;99.90;;;;;;5045956;28;20044;-35
2022/09/24 06:56:24;;;;;;;12.50;11.20;;;14.70;99.90;;;;;;5044483;28;20083;-35
2022/09/24 06:58:50;;;;;;;13.48;12.07;;;14.80;99.90;;;;;;5046006;28;20032;-36
2022/09/24 07:01:16;;;;;;;15.57;12.18;;;14.80;99.90;;;;;;5045503;28;20302;-35
2022/09/24 07:03:41;;;;;;;11.02;9.23;;;14.80;99.90;;;;;;5045294;28;20358;-36
2022/09/24 07:06:07;;;;;;;11.63;10.43;;;14.80;99.90;;;;;;5046437;28;20374;-35
2022/09/24 07:08:33;;;;;;;12.38;11.10;;;14.80;99.90;;;;;;5045589;28;20079;-33
2022/09/24 07:11:00;;;;;;;12.80;11.43;;;14.80;99.90;;;;;;5045621;28;20033;-35
2022/09/24 07:13:25;;;;;;;13.70;11.48;;;14.80;99.90;;;;;;5045124;28;20106;-35
2022/09/24 07:15:51;;;;;;;13.15;11.75;;;14.80;99.90;;;;;;5046106;28;20465;-35
2022/09/24 07:18:18;;;;;;;13.32;11.63;;;14.90;99.90;;;;;;5044192;28;20128;-35
2022/09/24 07:20:49;;;;;;;11.90;10.70;;;14.90;99.90;;;;;;5046274;28;20060;-35
2022/09/24 07:23:17;;;;;;;13.15;11.75;;;14.90;99.90;;;;;;5045192;28;20032;-36
2022/09/24 07:25:43;;;;;;;13.98;10.88;;;14.90;99.90;;;;;;5045169;28;20364;-35
2022/09/24 07:28:11;;;;;;;12.52;11.05;;;14.90;99.90;;;;;;5044976;28;20469;-35
2022/09/24 07:30:38;;;;;;;12.05;10.82;;;15.00;99.90;;;;;;5046136;28;20025;-35
2022/09/24 07:33:04;;;;;;;14.73;11.25;;;15.00;99.90;;;;;;5044716;28;20027;-36
2022/09/24 07:35:30;;;;;;;12.07;10.77;;;15.00;99.90;;;;;;5041720;28;20111;-34
2022/09/24 07:37:58;;;;;;;11.27;10.18;;;14.90;99.90;;;;;;5045553;28;20115;-35
2022/09/24 07:40:24;;;;;;;12.50;11.23;;;14.90;99.90;;;;;;5044167;28;20075;-35
2022/09/24 07:42:49;;;;;;;11.13;9.93;;;15.00;99.90;;;;;;5045800;28;20033;-35
2022/09/24 07:45:18;;;;;;;12.25;11.05;;;15.00;99.90;;;;;;5043776;28;20025;-35
2022/09/24 07:47:44;;;;;;;12.27;10.95;;;15.00;99.90;;;;;;5044684;28;20048;-34
2022/09/24 07:50:10;;;;;;;12.10;10.88;;;15.00;99.90;;;;;;5044678;28;20029;-34
2022/09/24 07:52:36;;;;;;;12.75;10.77;;;15.00;99.90;;;;;;5044510;28;20040;-35
2022/09/24 07:55:01;;;;;;;12.48;11.15;;;15.10;99.90;;;;;;5044883;28;20033;-35
2022/09/24 07:57:27;;;;;;;11.23;10.13;;;15.10;99.90;;;;;;5045060;28;20117;-35
2022/09/24 07:59:53;;;;;;;12.93;11.63;;;15.10;99.90;;;;;;5043778;28;20052;-35
2022/09/24 08:02:19;;;;;;;12.05;10.77;;;15.10;99.90;;;;;;5044016;28;20499;-35
2022/09/24 08:04:45;;;;;;;13.35;11.43;;;15.10;99.90;;;;;;5044381;28;20028;-35
2022/09/24 08:07:11;;;;;;;13.05;11.38;;;15.10;99.90;;;;;;5044037;28;20614;-35
2022/09/24 08:09:38;;;;;;;10.57;9.57;;;15.10;99.90;;;;;;5044842;28;20189;-36
2022/09/24 08:12:04;;;;;;;13.02;11.63;;;15.10;99.90;;;;;;5045078;28;20492;-34
2022/09/24 08:14:30;;;;;;;12.60;11.07;;;15.10;99.90;;;;;;5042898;28;20104;-34
2022/09/24 08:16:55;;;;;;;11.90;10.30;;;15.10;99.90;;;;;;5044404;28;20463;-35
2022/09/24 08:19:21;;;;;;;11.77;10.57;;;15.10;99.90;;;;;;5044299;28;20371;-35
2022/09/24 08:21:47;;;;;;;12.70;11.45;;;15.10;99.90;;;;;;5042259;28;20021;-36
2022/09/24 08:24:16;;;;;;;13.68;12.38;;;15.00;99.90;;;;;;5043930;28;20283;-35
2022/09/24 08:26:42;;;;;;;15.40;12.68;;;15.10;99.90;;;;;;5044186;28;20072;-35
2022/09/24 08:29:10;;;;;;;13.77;11.70;;;15.10;99.90;;;;;;5043574;28;20049;-38
2022/09/24 08:31:36;;;;;;;12.10;10.90;;;15.10;99.90;;;;;;5045172;28;20387;-35
2022/09/24 08:34:01;;;;;;;12.63;11.32;;;15.10;99.90;;;;;;5044219;28;20031;-34
2022/09/24 08:36:27;;;;;;;12.65;11.40;;;15.10;99.90;;;;;;5042692;28;20686;-35
2022/09/24 08:38:54;;;;;;;11.60;10.40;;;15.10;99.90;;;;;;5044459;28;20677;-35
2022/09/24 08:41:26;;;;;;;11.75;10.55;;;15.10;99.90;;;;;;5043775;28;20522;-34
2022/09/24 08:44:14;;;;;;;11.25;10.15;;;15.10;99.90;;;;;;5044141;28;20028;-35
2022/09/24 08:49:39;;;;;;;;;;;15.20;99.90;;;;;;5045091;28;20197;-35
2022/09/24 08:52:27;;;;;;;10.80;9.70;;;15.20;99.90;;;;;;5045085;28;19909;-34
2022/09/24 08:54:55;;;;;;;11.52;10.43;;;15.20;99.90;;;;;;5034098;28;20040;-35
2022/09/24 08:57:21;;;;;;;11.50;10.40;;;15.20;99.90;;;;;;5043020;28;20029;-34
2022/09/24 08:59:51;;;;;;;12.00;10.73;;;15.20;99.90;;;;;;5045038;28;20053;-36
2022/09/24 09:02:39;;;;;;;11.05;9.95;;;15.20;99.90;;;;;;5044051;28;20052;-37
2022/09/24 09:05:26;;;;;;;12.25;11.05;;;15.20;99.90;;;;;;5044540;28;20064;-35
2022/09/24 09:08:22;;;;;;;11.95;10.85;;;15.20;99.90;;;;;;5044802;28;20055;-35
2022/09/24 09:10:52;;;;;;;11.25;10.15;;;15.20;99.90;;;;;;5024822;28;20030;-36
2022/09/24 09:13:24;;;;;;;10.85;9.75;;;15.20;99.90;;;;;;5042280;28;20031;-35
2022/09/24 09:16:11;;;;;;;11.15;10.05;;;15.20;99.90;;;;;;5044756;28;20084;-35
2022/09/24 09:18:40;;;;;;;10.20;9.20;;;15.20;99.90;;;;;;5043215;28;20036;-37
2022/09/24 09:21:17;;;;;;;11.10;10.07;;;15.20;99.90;;;;;;5044659;28;20028;-37
2022/09/24 09:23:51;;;;;;;10.40;9.40;;;15.20;99.90;;;;;;5044368;28;20029;-36
2022/09/24 09:26:19;;;;;;;11.60;9.88;;;15.30;99.90;;;;;;5043787;28;20061;-36
2022/09/24 09:28:45;;;;;;;8.43;7.63;;;15.20;99.90;;;;;;5043653;28;20388;-35
2022/09/24 09:31:19;;;;;;;9.98;9.07;;;15.30;99.90;;;;;;5043813;28;20027;-35
2022/09/24 09:34:03;;;;;;;10.48;9.40;;;15.20;99.90;;;;;;5044099;28;20062;-35
2022/09/24 09:36:55;;;;;;;10.70;9.63;;;15.30;99.90;;;;;;5023949;28;20029;-33
2022/09/24 09:39:49;;;;;;;11.38;9.80;;;15.30;99.90;;;;;;5042614;28;20560;-35
2022/09/24 09:42:33;;;;;;;10.27;9.18;;;15.20;99.90;;;;;;5043737;28;20044;-35
2022/09/24 09:45:23;;;;;;;9.48;8.52;;;15.20;99.90;;;;;;5041328;28;20029;-34
2022/09/24 09:47:53;;;;;;;11.15;9.40;;;15.20;99.90;;;;;;5044786;28;20094;-35
2022/09/24 09:50:27;;;;;;;9.20;8.30;;;15.20;99.90;;;;;;5044226;28;20020;-35
2022/09/24 09:52:54;;;;;;;9.48;8.57;;;15.20;99.90;;;;;;5043641;28;20041;-35
2022/09/24 09:55:26;;;;;;;10.05;9.05;;;15.30;99.90;;;;;;5044274;28;20013;-36
2022/09/24 09:57:52;;;;;;;9.50;8.57;;;15.30;99.90;;;;;;5043674;28;20040;-36
2022/09/24 10:00:26;;;;;;;10.60;9.10;;;15.30;99.90;;;;;;5042802;28;20435;-35
2022/09/24 10:02:53;;;;;;;8.70;7.80;;;15.30;99.90;;;;;;5044543;28;20028;-35
2022/09/24 10:05:27;;;;;;;9.50;8.48;;;15.40;99.90;;;;;;5042412;28;20025;-36
2022/09/24 10:07:59;;;;;;;9.63;8.63;;;15.40;99.90;;;;;;5043141;28;20025;-36
2022/09/24 10:10:26;;;;;;;9.68;8.77;;;15.40;99.90;;;;;;5043756;28;20028;-36
2022/09/24 10:13:13;;;;;;;9.73;8.38;;;15.40;99.90;;;;;;5044069;28;20115;-35
2022/09/24 10:15:48;;;;;;;10.30;8.93;;;15.40;99.90;;;;;;5043091;28;20047;-35
2022/09/24 10:18:14;;;;;;;9.07;8.18;;;15.40;99.90;;;;;;5042906;28;20044;-34
2022/09/24 10:20:47;;;;;;;9.85;8.75;;;15.30;99.90;;;;;;5043363;28;20029;-34
2022/09/24 10:23:19;;;;;;;9.80;8.80;;;15.30;99.90;;;;;;5043983;28;20029;-36
2022/09/24 10:25:52;;;;;;;10.57;9.57;;;15.30;99.90;;;;;;5044217;28;20568;-36
2022/09/24 10:31:10;;;;;;;9.85;8.85;;;15.30;99.90;;;;;;5045049;28;19919;-35
2022/09/24 10:33:42;;;;;;;9.35;8.45;;;15.30;99.90;;;;;;5047605;28;20137;-35
2022/09/24 10:36:21;;;;;;;10.50;8.93;;;15.30;99.90;;;;;;5046027;28;20460;-36
2022/09/24 10:38:47;;;;;;;9.27;8.38;;;15.30;99.90;;;;;;5046796;28;20112;-36
2022/09/24 10:41:27;;;;;;;10.02;9.02;;;15.30;99.90;;;;;;5045689;28;20375;-36
2022/09/24 10:43:54;;;;;;;9.70;8.70;;;15.40;99.90;;;;;;5046548;28;20686;-36
2022/09/24 10:46:54;;;;;;;10.32;9.18;;;15.40;99.90;;;;;;5046370;28;20055;-36
2022/09/24 10:49:31;;;;;;;9.95;8.80;;;15.40;99.90;;;;;;5046178;28;20028;-37
2022/09/24 10:52:24;;;;;;;8.57;7.78;;;15.50;99.90;;;;;;5046411;28;20040;-37
2022/09/24 10:54:55;;;;;;;10.43;9.43;;;15.50;99.90;;;;;;5046909;28;20037;-35
2022/09/24 10:57:38;;;;;;;11.25;9.45;;;15.50;99.90;;;;;;5045679;28;20068;-36
2022/09/24 11:00:18;;;;;;;9.30;8.38;;;15.50;99.90;;;;;;5047339;28;20064;-33
2022/09/24 11:02:56;;;;;;;11.30;9.73;;;15.50;99.90;;;;;;5046145;28;20518;-36
2022/09/24 11:05:23;;;;;;;10.50;9.50;;;15.50;99.90;;;;;;5046209;28;20063;-35
2022/09/24 11:08:07;;;;;;;10.43;9.32;;;15.40;99.90;;;;;;5046336;28;20112;-35
2022/09/24 11:10:34;;;;;;;10.50;9.50;;;15.40;99.90;;;;;;5045832;28;20108;-36
2022/09/24 11:13:15;;;;;;;10.60;9.50;;;15.40;99.90;;;;;;5046849;28;20104;-36
2022/09/24 11:15:52;;;;;;;11.48;9.65;;;15.50;99.90;;;;;;5046836;28;20036;-35
2022/09/24 11:18:38;;;;;;;10.23;9.23;;;15.50;99.90;;;;;;5044849;28;20075;-35
2022/09/24 11:21:41;;;;;;;9.63;8.63;;;15.50;99.90;;;;;;5047249;28;20493;-35
2022/09/24 11:24:16;;;;;;;10.00;9.00;;;15.50;99.90;;;;;;5038973;28;20595;-36
2022/09/24 11:26:47;;;;;;;10.07;9.07;;;15.50;99.90;;;;;;5044826;28;20496;-36
2022/09/24 11:29:24;;;;;;;10.38;9.38;;;15.50;99.90;;;;;;5045795;28;20086;-35
2022/09/24 11:32:26;;;;;;;10.52;9.48;;;15.50;99.90;;;;;;5044894;28;20051;-35
2022/09/24 11:35:20;;;;;;;10.13;9.13;;;15.50;99.90;;;;;;5046204;28;20040;-34
2022/09/24 11:37:54;;;;;;;10.13;9.13;;;15.50;99.90;;;;;;5045149;28;20039;-34
2022/09/24 11:40:26;;;;;;;11.18;9.63;;;15.50;99.90;;;;;;5045935;28;20425;-34
2022/09/24 11:43:17;;;;;;;9.93;8.93;;;15.50;99.90;;;;;;5045393;28;20032;-35
2022/09/24 11:46:08;;;;;;;9.68;8.35;;;15.50;99.90;;;;;;5025790;28;20378;-35
2022/09/24 11:48:58;;;;;;;10.18;9.13;;;15.50;99.90;;;;;;5044464;28;20032;-35
2022/09/24 11:51:58;;;;;;;9.07;8.18;;;15.60;99.90;;;;;;5045580;28;20029;-35
2022/09/24 11:54:33;;;;;;;8.73;7.90;;;15.60;99.90;;;;;;5045253;28;20025;-35
2022/09/24 11:57:24;;;;;;;8.55;7.70;;;15.60;99.90;;;;;;5046032;28;20033;-35
2022/09/24 11:59:55;;;;;;;7.95;7.15;;;15.70;99.90;;;;;;5034436;28;20103;-34
2022/09/24 12:02:48;;;;;;;8.02;7.25;;;15.70;99.90;;;;;;5045099;28;20556;-35
2022/09/24 12:05:19;;;;;;;7.93;7.13;;;15.70;99.90;;;;;;5036165;28;20032;-35
2022/09/24 12:07:54;;;;;;;8.27;6.97;;;15.80;99.90;;;;;;5044271;28;20425;-43
2022/09/24 12:10:35;;;;;;;8.05;7.25;;;15.90;99.90;;;;;;5044814;28;20021;-35
2022/09/24 12:13:33;;;;;;;7.85;7.07;;;15.90;99.90;;;;;;5044968;28;20035;-34
2022/09/24 12:16:04;;;;;;;8.02;7.10;;;15.90;99.90;;;;;;5045429;28;20365;-36
2022/09/24 12:18:37;;;;;;;8.77;7.05;;;15.90;99.90;;;;;;5044466;28;20036;-35
2022/09/24 12:21:13;;;;;;;9.57;7.63;;;15.90;99.90;;;;;;5042780;28;20376;-36
2022/09/24 12:23:43;;;;;;;8.75;7.47;;;15.90;99.90;;;;;;5044461;28;20108;-35
2022/09/24 12:26:10;;;;;;;8.98;8.07;;;15.90;99.90;;;;;;5043574;28;20039;-34
2022/09/24 12:35:07;;;;;;;9.82;8.60;;;15.90;99.90;;;;;;5043384;28;20426;-34
2022/09/24 12:37:38;;;;;;;8.85;7.93;;;15.90;99.90;;;;;;5024514;28;20272;-35
2022/09/24 12:40:12;;;;;;;9.73;8.73;;;15.90;99.90;;;;;;5040959;28;20407;-35
2022/09/24 12:42:49;;;;;;;10.60;9.50;;;15.90;99.90;;;;;;5036508;28;20074;-36
2022/09/24 12:45:21;;;;;;;10.63;9.52;;;15.90;99.90;;;;;;5043569;28;20021;-36
2022/09/24 12:48:12;;;;;;;10.38;9.27;;;15.90;99.90;;;;;;5044341;28;20037;-36
2022/09/24 12:50:38;;;;;;;10.43;9.40;;;15.90;99.90;;;;;;5044174;28;20017;-36
2022/09/24 12:53:23;;;;;;;11.13;10.02;;;15.90;99.90;;;;;;5044339;28;20676;-35
2022/09/24 12:55:50;;;;;;;11.30;10.10;;;15.90;99.90;;;;;;5043368;28;20464;-35
2022/09/24 12:58:41;;;;;;;10.32;9.32;;;15.90;99.90;;;;;;5043859;28;20028;-35
2022/09/24 13:01:29;;;;;;;10.23;9.23;;;15.90;99.90;;;;;;5043397;28;20057;-35
2022/09/24 13:04:14;;;;;;;10.48;9.48;;;15.90;99.90;;;;;;5043255;28;20056;-35
2022/09/24 13:06:46;;;;;;;10.57;9.52;;;15.90;99.90;;;;;;5041783;28;20119;-35
2022/09/24 13:09:37;;;;;;;10.75;9.65;;;15.80;99.90;;;;;;5041891;28;20115;-35
2022/09/24 13:12:13;;;;;;;10.68;9.60;;;15.80;99.90;;;;;;5042600;28;20576;-35